Time,TemperatureF,DewpointF,PressureIn,WindDirection,WindDirectionDegrees,WindSpeedMPH,WindSpeedGustMPH,Humidity,HourlyPrecipIn,Conditions,Clouds,dailyrainin,SoftwareType,DateUTC
2013-05-06 00:04:00,63.8,59.0,29.96,NE,55,0.0,0.0,83,0.00,,,0.00,weatherlink.com 1.10,2013-05-06 04:04:00,
2013-05-06 00:19:00,64.2,59.0,29.96,SSW,211,0.0,0.0,84,0.00,,,0.00,weatherlink.com 1.10,2013-05-06 04:19:00,
2013-05-06 00:34:00,63.9,59.0,29.96,SSW,211,0.0,0.0,85,0.00,,,0.00,weatherlink.com 1.10,2013-05-06 04:34:00,
2013-05-06 00:49:00,63.3,59.0,29.96,SSW,211,0.0,0.0,86,0.00,,,0.00,weatherlink.com 1.10,2013-05-06 04:49:00,
2013-05-06 01:04:00,63.4,59.0,29.96,SSW,211,0.0,0.0,86,0.00,,,0.00,weatherlink.com 1.10,2013-05-06 05:04:00,
2013-05-06 01:19:00,63.0,59.0,29.95,SSW,211,0.0,0.0,87,0.00,,,0.00,weatherlink.com 1.10,2013-05-06 05:19:00,
2013-05-06 01:34:00,63.8,59.0,29.95,South,186,0.0,1.0,85,0.00,,,0.00,weatherlink.com 1.10,2013-05-06 05:34:00,
2013-05-06 01:49:00,64.1,60.0,29.95,SSW,212,0.0,1.0,85,0.00,,,0.00,weatherlink.com 1.10,2013-05-06 05:49:00,
2013-05-06 02:04:00,63.8,59.0,29.94,SSW,202,0.0,0.0,85,0.00,,,0.00,weatherlink.com 1.10,2013-05-06 06:04:00,
2013-05-06 02:19:00,63.1,59.0,29.93,SSW,203,0.0,0.0,86,0.00,,,0.00,weatherlink.com 1.10,2013-05-06 06:19:00,
2013-05-06 02:34:00,62.8,60.0,29.93,SSW,202,0.0,0.0,89,0.00,,,0.00,weatherlink.com 1.10,2013-05-06 06:34:00,
2013-05-06 02:49:00,63.0,59.0,29.93,SSW,202,0.0,0.0,88,0.00,,,0.00,weatherlink.com 1.10,2013-05-06 06:49:00,
2013-05-06 03:04:00,63.3,60.0,29.93,SSW,208,0.0,1.0,88,0.00,,,0.00,weatherlink.com 1.10,2013-05-06 07:04:00,
2013-05-06 03:19:00,63.7,60.0,29.93,SSW,209,0.0,0.0,88,0.00,,,0.00,weatherlink.com 1.10,2013-05-06 07:19:00,
2013-05-06 03:34:00,63.7,60.0,29.93,SSW,208,0.0,0.0,88,0.00,,,0.00,weatherlink.com 1.10,2013-05-06 07:34:00,
2013-05-06 03:49:00,63.5,60.0,29.93,SSW,208,0.0,0.0,88,0.00,,,0.00,weatherlink.com 1.10,2013-05-06 07:49:00,
2013-05-06 04:04:00,63.6,60.0,29.93,SSW,209,0.0,0.0,89,0.00,,,0.00,weatherlink.com 1.10,2013-05-06 08:04:00,
2013-05-06 04:19:00,63.6,60.0,29.93,SSW,208,0.0,0.0,89,0.00,,,0.00,weatherlink.com 1.10,2013-05-06 08:19:00,
2013-05-06 04:34:00,63.4,61.0,29.93,SSW,208,0.0,1.0,90,0.00,,,0.00,weatherlink.com 1.10,2013-05-06 08:34:00,
2013-05-06 04:49:00,63.3,61.0,29.93,South,187,0.0,0.0,91,0.00,,,0.00,weatherlink.com 1.10,2013-05-06 08:49:00,
2013-05-06 05:04:00,62.5,60.0,29.93,South,187,0.0,0.0,91,0.00,,,0.00,weatherlink.com 1.10,2013-05-06 09:04:00,
2013-05-06 05:19:00,62.2,60.0,29.94,South,187,0.0,0.0,92,0.00,,,0.00,weatherlink.com 1.10,2013-05-06 09:19:00,
2013-05-06 05:34:00,62.0,60.0,29.94,South,187,0.0,0.0,93,0.00,,,0.00,weatherlink.com 1.10,2013-05-06 09:34:00,
2013-05-06 05:49:00,62.5,61.0,29.95,South,188,0.0,0.0,93,0.00,,,0.00,weatherlink.com 1.10,2013-05-06 09:49:00,
2013-05-06 06:04:00,62.8,61.0,29.95,South,187,0.0,0.0,93,0.00,,,0.00,weatherlink.com 1.10,2013-05-06 10:04:00,
2013-05-06 06:19:00,62.8,61.0,29.95,South,188,0.0,0.0,94,0.00,,,0.00,weatherlink.com 1.10,2013-05-06 10:19:00,
2013-05-06 06:34:00,63.2,62.0,29.96,South,187,0.0,0.0,94,0.00,,,0.00,weatherlink.com 1.10,2013-05-06 10:34:00,
2013-05-06 06:49:00,63.5,62.0,29.96,South,187,0.0,0.0,94,0.00,,,0.00,weatherlink.com 1.10,2013-05-06 10:49:00,
2013-05-06 07:04:00,63.9,62.0,29.96,South,187,0.0,0.0,93,0.00,,,0.00,weatherlink.com 1.10,2013-05-06 11:04:00,
2013-05-06 07:19:00,64.3,63.0,29.97,SW,217,0.0,0.0,94,0.00,,,0.00,weatherlink.com 1.10,2013-05-06 11:19:00,
2013-05-06 07:34:00,66.9,64.0,29.97,SW,229,0.0,1.0,89,0.00,,,0.00,weatherlink.com 1.10,2013-05-06 11:34:00,
2013-05-06 07:49:00,69.1,65.0,29.97,SW,215,0.0,0.0,86,0.00,,,0.00,weatherlink.com 1.10,2013-05-06 11:49:00,
2013-05-06 08:05:00,70.9,65.0,29.97,WSW,242,3.0,4.0,81,0.00,,,0.00,weatherlink.com 1.10,2013-05-06 12:05:00,
2013-05-06 08:20:00,72.0,65.0,29.98,WSW,252,1.0,3.0,79,0.00,,,0.00,weatherlink.com 1.10,2013-05-06 12:20:00,
2013-05-06 08:35:00,72.6,66.0,29.98,NNW,333,0.0,5.0,80,0.00,,,0.00,weatherlink.com 1.10,2013-05-06 12:35:00,
2013-05-06 08:50:00,74.1,66.0,29.98,West,264,2.0,2.0,77,0.00,,,0.00,weatherlink.com 1.10,2013-05-06 12:50:00,
2013-05-06 09:05:00,75.5,67.0,29.98,NW,304,1.0,3.0,74,0.00,,,0.00,weatherlink.com 1.10,2013-05-06 13:05:00,
2013-05-06 09:20:00,76.1,67.0,29.98,West,276,1.0,2.0,73,0.00,,,0.00,weatherlink.com 1.10,2013-05-06 13:20:00,
2013-05-06 09:35:00,76.1,66.0,29.99,NW,311,1.0,2.0,71,0.00,,,0.00,weatherlink.com 1.10,2013-05-06 13:35:00,
2013-05-06 09:50:00,77.0,66.0,29.99,SW,226,2.0,7.0,69,0.00,,,0.00,weatherlink.com 1.10,2013-05-06 13:50:00,
2013-05-06 10:05:00,77.8,66.0,29.99,NW,308,1.0,6.0,68,0.00,,,0.00,weatherlink.com 1.10,2013-05-06 14:05:00,
2013-05-06 10:20:00,78.1,67.0,29.99,NW,308,1.0,6.0,69,0.00,,,0.00,weatherlink.com 1.10,2013-05-06 14:20:00,
2013-05-06 10:35:00,76.4,66.0,30.00,West,263,1.0,2.0,69,0.00,,,0.00,weatherlink.com 1.10,2013-05-06 14:35:00,
2013-05-06 10:50:00,75.1,66.0,30.00,West,266,0.0,1.0,72,0.00,,,0.00,weatherlink.com 1.10,2013-05-06 14:50:00,
2013-05-06 11:05:00,76.4,66.0,30.00,North,1,1.0,2.0,71,0.00,,,0.00,weatherlink.com 1.10,2013-05-06 15:05:00,
2013-05-06 11:20:00,76.2,66.0,30.00,NW,309,1.0,2.0,70,0.00,,,0.00,weatherlink.com 1.10,2013-05-06 15:20:00,
2013-05-06 11:35:00,77.4,66.0,30.00,SW,223,1.0,2.0,68,0.00,,,0.00,weatherlink.com 1.10,2013-05-06 15:35:00,
2013-05-06 11:50:00,78.2,66.0,30.00,WSW,253,1.0,4.0,67,0.00,,,0.00,weatherlink.com 1.10,2013-05-06 15:50:00,
2013-05-06 12:05:00,77.5,66.0,30.00,West,270,1.0,2.0,67,0.00,,,0.00,weatherlink.com 1.10,2013-05-06 16:05:00,
2013-05-06 12:20:00,77.8,66.0,30.00,West,275,1.0,3.0,68,0.00,,,0.00,weatherlink.com 1.10,2013-05-06 16:20:00,
2013-05-06 12:35:00,77.4,65.0,30.00,West,276,0.0,2.0,66,0.00,,,0.00,weatherlink.com 1.10,2013-05-06 16:35:00,
2013-05-06 12:50:00,78.5,66.0,29.99,WNW,287,0.0,4.0,65,0.00,,,0.00,weatherlink.com 1.10,2013-05-06 16:50:00,
2013-05-06 13:05:00,79.6,66.0,29.99,WNW,294,1.0,6.0,64,0.00,,,0.00,weatherlink.com 1.10,2013-05-06 17:05:00,
2013-05-06 13:20:00,80.3,66.0,29.99,NNW,343,2.0,4.0,61,0.00,,,0.00,weatherlink.com 1.10,2013-05-06 17:20:00,
2013-05-06 13:35:00,79.5,65.0,29.99,West,269,1.0,3.0,62,0.00,,,0.00,weatherlink.com 1.10,2013-05-06 17:35:00,
2013-05-06 13:50:00,79.4,65.0,29.98,NW,323,2.0,3.0,62,0.00,,,0.00,weatherlink.com 1.10,2013-05-06 17:50:00,
2013-05-06 14:05:00,79.9,67.0,29.99,NNW,332,0.0,3.0,64,0.00,,,0.00,weatherlink.com 1.10,2013-05-06 18:05:00,
2013-05-06 14:20:00,79.8,65.0,29.99,WSW,257,1.0,6.0,61,0.00,,,0.00,weatherlink.com 1.10,2013-05-06 18:20:00,
2013-05-06 14:35:00,78.6,65.0,29.98,SW,221,1.0,5.0,64,0.00,,,0.00,weatherlink.com 1.10,2013-05-06 18:35:00,
2013-05-06 14:50:00,78.8,65.0,29.97,NW,323,2.0,3.0,63,0.00,,,0.00,weatherlink.com 1.10,2013-05-06 18:50:00,
2013-05-06 15:05:00,79.3,64.0,29.97,West,280,1.0,3.0,59,0.00,,,0.00,weatherlink.com 1.10,2013-05-06 19:05:00,
2013-05-06 15:20:00,80.8,66.0,29.97,NW,321,1.0,4.0,61,0.00,,,0.00,weatherlink.com 1.10,2013-05-06 19:20:00,
2013-05-06 15:35:00,80.0,64.0,29.96,NW,316,1.0,9.0,59,0.00,,,0.00,weatherlink.com 1.10,2013-05-06 19:35:00,
2013-05-06 15:50:00,79.5,65.0,29.95,SSE,148,2.0,3.0,61,0.00,,,0.00,weatherlink.com 1.10,2013-05-06 19:50:00,
2013-05-06 16:05:00,80.8,66.0,29.95,NW,314,1.0,7.0,61,0.00,,,0.00,weatherlink.com 1.10,2013-05-06 20:05:00,
2013-05-06 16:20:00,80.8,64.0,29.95,NW,326,1.0,4.0,56,0.00,,,0.00,weatherlink.com 1.10,2013-05-06 20:20:00,
2013-05-06 16:35:00,79.3,65.0,29.95,NW,323,2.0,4.0,61,0.00,,,0.00,weatherlink.com 1.10,2013-05-06 20:35:00,
2013-05-06 16:50:00,79.6,64.0,29.95,NW,315,1.0,3.0,60,0.00,,,0.00,weatherlink.com 1.10,2013-05-06 20:50:00,
2013-05-06 17:06:00,79.3,65.0,29.95,WNW,303,1.0,7.0,61,0.00,,,0.00,weatherlink.com 1.10,2013-05-06 21:06:00,
2013-05-06 17:21:00,78.8,63.0,29.95,WSW,256,3.0,5.0,59,0.00,,,0.00,weatherlink.com 1.10,2013-05-06 21:21:00,
2013-05-06 17:36:00,78.7,64.0,29.95,NW,319,1.0,7.0,60,0.00,,,0.00,weatherlink.com 1.10,2013-05-06 21:36:00,
2013-05-06 17:51:00,78.7,64.0,29.94,WSW,257,1.0,5.0,60,0.00,,,0.00,weatherlink.com 1.10,2013-05-06 21:51:00,
2013-05-06 18:06:00,76.6,64.0,29.94,West,280,1.0,10.0,65,0.00,,,0.00,weatherlink.com 1.10,2013-05-06 22:06:00,
2013-05-06 18:21:00,75.6,63.0,29.94,WNW,302,2.0,6.0,66,0.00,,,0.00,weatherlink.com 1.10,2013-05-06 22:21:00,
2013-05-06 18:36:00,74.7,64.0,29.94,WSW,250,2.0,5.0,69,0.00,,,0.00,weatherlink.com 1.10,2013-05-06 22:36:00,
2013-05-06 18:51:00,74.0,63.0,29.94,West,266,1.0,7.0,69,0.00,,,0.00,weatherlink.com 1.10,2013-05-06 22:51:00,
2013-05-06 19:06:00,73.4,63.0,29.95,WNW,284,0.0,6.0,70,0.00,,,0.00,weatherlink.com 1.10,2013-05-06 23:06:00,
2013-05-06 19:21:00,72.7,62.0,29.95,WSW,245,2.0,4.0,70,0.00,,,0.00,weatherlink.com 1.10,2013-05-06 23:21:00,
2013-05-06 19:36:00,71.9,63.0,29.95,NW,307,0.0,5.0,73,0.00,,,0.00,weatherlink.com 1.10,2013-05-06 23:36:00,
2013-05-06 19:51:00,71.2,63.0,29.95,NNW,330,0.0,1.0,74,0.00,,,0.00,weatherlink.com 1.10,2013-05-06 23:51:00,
2013-05-06 20:06:00,70.3,62.0,29.96,West,263,0.0,1.0,76,0.00,,,0.00,weatherlink.com 1.10,2013-05-07 00:06:00,
2013-05-06 20:21:00,69.7,62.0,29.96,WNW,285,0.0,2.0,77,0.00,,,0.00,weatherlink.com 1.10,2013-05-07 00:21:00,
2013-05-06 20:36:00,69.1,62.0,29.96,WSW,240,0.0,1.0,78,0.00,,,0.00,weatherlink.com 1.10,2013-05-07 00:36:00,
2013-05-06 20:51:00,68.5,62.0,29.97,WSW,240,0.0,1.0,79,0.00,,,0.00,weatherlink.com 1.10,2013-05-07 00:51:00,
2013-05-06 21:06:00,67.7,62.0,29.97,SE,135,0.0,0.0,81,0.00,,,0.00,weatherlink.com 1.10,2013-05-07 01:06:00,
2013-05-06 21:21:00,67.6,62.0,29.98,West,277,0.0,0.0,81,0.00,,,0.00,weatherlink.com 1.10,2013-05-07 01:21:00,
2013-05-06 21:36:00,67.3,62.0,29.99,WNW,285,0.0,1.0,82,0.00,,,0.00,weatherlink.com 1.10,2013-05-07 01:36:00,
2013-05-06 21:51:00,66.8,61.0,29.99,WNW,285,0.0,1.0,82,0.00,,,0.00,weatherlink.com 1.10,2013-05-07 01:51:00,
2013-05-06 22:06:00,66.5,61.0,30.00,WNW,285,0.0,0.0,83,0.00,,,0.00,weatherlink.com 1.10,2013-05-07 02:06:00,
2013-05-06 22:21:00,66.5,61.0,30.00,WSW,238,0.0,0.0,83,0.00,,,0.00,weatherlink.com 1.10,2013-05-07 02:21:00,
2013-05-06 22:36:00,66.3,61.0,30.01,WSW,249,0.0,1.0,84,0.00,,,0.00,weatherlink.com 1.10,2013-05-07 02:36:00,
2013-05-06 22:51:00,66.4,61.0,30.01,WSW,256,0.0,1.0,83,0.00,,,0.00,weatherlink.com 1.10,2013-05-07 02:51:00,
2013-05-06 23:06:00,66.3,61.0,30.01,West,271,0.0,0.0,83,0.00,,,0.00,weatherlink.com 1.10,2013-05-07 03:06:00,
2013-05-06 23:21:00,66.2,61.0,30.01,WSW,252,0.0,2.0,83,0.00,,,0.00,weatherlink.com 1.10,2013-05-07 03:21:00,
2013-05-06 23:36:00,65.9,61.0,30.01,WSW,252,0.0,0.0,84,0.00,,,0.00,weatherlink.com 1.10,2013-05-07 03:36:00,
2013-05-06 23:51:00,66.2,61.0,30.01,West,273,0.0,0.0,83,0.00,,,0.00,weatherlink.com 1.10,2013-05-07 03:51:00,